sensor_id;sensor_type;location;lat;lon;timestamp;P1;durP1;ratioP1;P2;durP2;ratioP2
53650;SDS011;39552;45.776;15.892;2022-07-11T00:01:09;6.20;;;1.60;;
53650;SDS011;39552;45.776;15.892;2022-07-11T00:03:36;1.35;;;1.10;;
53650;SDS011;39552;45.776;15.892;2022-07-11T00:06:09;3.85;;;1.33;;
53650;SDS011;39552;45.776;15.892;2022-07-11T00:08:39;1.67;;;1.30;;
53650;SDS011;39552;45.776;15.892;2022-07-11T00:11:11;2.80;;;1.10;;
53650;SDS011;39552;45.776;15.892;2022-07-11T00:13:47;4.78;;;1.38;;
53650;SDS011;39552;45.776;15.892;2022-07-11T00:16:20;5.30;;;1.60;;
53650;SDS011;39552;45.776;15.892;2022-07-11T00:18:49;3.35;;;1.42;;
53650;SDS011;39552;45.776;15.892;2022-07-11T00:21:19;2.25;;;1.50;;
53650;SDS011;39552;45.776;15.892;2022-07-11T00:23:46;4.43;;;1.30;;
53650;SDS011;39552;45.776;15.892;2022-07-11T00:26:13;11.18;;;1.42;;
53650;SDS011;39552;45.776;15.892;2022-07-11T00:28:40;2.75;;;1.80;;
53650;SDS011;39552;45.776;15.892;2022-07-11T00:31:08;2.95;;;1.60;;
53650;SDS011;39552;45.776;15.892;2022-07-11T00:33:35;7.10;;;1.80;;
53650;SDS011;39552;45.776;15.892;2022-07-11T00:36:02;4.75;;;1.85;;
53650;SDS011;39552;45.776;15.892;2022-07-11T00:38:32;4.63;;;1.80;;
53650;SDS011;39552;45.776;15.892;2022-07-11T00:40:58;9.45;;;2.15;;
53650;SDS011;39552;45.776;15.892;2022-07-11T00:43:31;3.17;;;1.70;;
53650;SDS011;39552;45.776;15.892;2022-07-11T00:45:59;3.83;;;1.70;;
53650;SDS011;39552;45.776;15.892;2022-07-11T00:48:28;4.05;;;1.80;;
53650;SDS011;39552;45.776;15.892;2022-07-11T00:50:55;5.00;;;1.60;;
53650;SDS011;39552;45.776;15.892;2022-07-11T00:53:23;5.00;;;1.80;;
53650;SDS011;39552;45.776;15.892;2022-07-11T00:55:51;3.30;;;1.60;;
53650;SDS011;39552;45.776;15.892;2022-07-11T00:58:19;2.53;;;1.63;;
53650;SDS011;39552;45.776;15.892;2022-07-11T01:00:46;2.90;;;1.60;;
53650;SDS011;39552;45.776;15.892;2022-07-11T01:03:16;5.20;;;1.90;;
53650;SDS011;39552;45.776;15.892;2022-07-11T01:05:45;4.55;;;1.80;;
53650;SDS011;39552;45.776;15.892;2022-07-11T01:08:12;5.45;;;1.98;;
53650;SDS011;39552;45.776;15.892;2022-07-11T01:10:38;3.10;;;1.90;;
53650;SDS011;39552;45.776;15.892;2022-07-11T01:13:05;2.88;;;1.67;;
53650;SDS011;39552;45.776;15.892;2022-07-11T01:15:36;6.18;;;2.00;;
53650;SDS011;39552;45.776;15.892;2022-07-11T01:18:06;6.30;;;2.10;;
53650;SDS011;39552;45.776;15.892;2022-07-11T01:20:35;4.80;;;1.90;;
53650;SDS011;39552;45.776;15.892;2022-07-11T01:23:11;5.40;;;2.30;;
53650;SDS011;39552;45.776;15.892;2022-07-11T01:25:38;5.13;;;1.80;;
53650;SDS011;39552;45.776;15.892;2022-07-11T01:28:05;5.05;;;1.95;;
53650;SDS011;39552;45.776;15.892;2022-07-11T01:30:35;4.25;;;1.80;;
53650;SDS011;39552;45.776;15.892;2022-07-11T01:33:04;12.60;;;2.63;;
53650;SDS011;39552;45.776;15.892;2022-07-11T01:35:33;6.53;;;2.08;;
53650;SDS011;39552;45.776;15.892;2022-07-11T01:38:04;6.65;;;2.90;;
53650;SDS011;39552;45.776;15.892;2022-07-11T01:40:40;8.10;;;2.40;;
53650;SDS011;39552;45.776;15.892;2022-07-11T01:43:07;7.85;;;2.67;;
53650;SDS011;39552;45.776;15.892;2022-07-11T01:45:39;5.45;;;2.65;;
53650;SDS011;39552;45.776;15.892;2022-07-11T01:48:10;6.60;;;2.42;;
53650;SDS011;39552;45.776;15.892;2022-07-11T01:50:39;8.27;;;2.63;;
53650;SDS011;39552;45.776;15.892;2022-07-11T01:53:09;4.75;;;2.47;;
53650;SDS011;39552;45.776;15.892;2022-07-11T01:55:40;7.43;;;2.53;;
53650;SDS011;39552;45.776;15.892;2022-07-11T01:58:30;2.60;;;2.40;;
53650;SDS011;39552;45.776;15.892;2022-07-11T02:01:00;4.40;;;2.58;;
53650;SDS011;39552;45.776;15.892;2022-07-11T02:03:28;7.57;;;2.08;;
53650;SDS011;39552;45.776;15.892;2022-07-11T02:06:00;3.55;;;2.10;;
53650;SDS011;39552;45.776;15.892;2022-07-11T02:08:32;4.75;;;2.40;;
53650;SDS011;39552;45.776;15.892;2022-07-11T02:11:01;7.47;;;2.30;;
53650;SDS011;39552;45.776;15.892;2022-07-11T02:13:34;6.03;;;2.42;;
53650;SDS011;39552;45.776;15.892;2022-07-11T02:16:08;4.05;;;2.25;;
53650;SDS011;39552;45.776;15.892;2022-07-11T02:18:40;7.43;;;2.10;;
53650;SDS011;39552;45.776;15.892;2022-07-11T02:23:42;6.00;;;1.83;;
53650;SDS011;39552;45.776;15.892;2022-07-11T02:26:13;8.18;;;2.20;;
53650;SDS011;39552;45.776;15.892;2022-07-11T02:28:46;3.45;;;2.00;;
53650;SDS011;39552;45.776;15.892;2022-07-11T02:31:16;4.35;;;2.10;;
53650;SDS011;39552;45.776;15.892;2022-07-11T02:33:45;7.63;;;1.90;;
53650;SDS011;39552;45.776;15.892;2022-07-11T02:36:15;6.38;;;2.25;;
53650;SDS011;39552;45.776;15.892;2022-07-11T02:38:44;3.92;;;1.92;;
53650;SDS011;39552;45.776;15.892;2022-07-11T02:41:16;5.70;;;2.20;;
53650;SDS011;39552;45.776;15.892;2022-07-11T02:43:45;6.93;;;1.83;;
53650;SDS011;39552;45.776;15.892;2022-07-11T02:46:15;4.45;;;1.80;;
53650;SDS011;39552;45.776;15.892;2022-07-11T02:48:46;8.82;;;2.05;;
53650;SDS011;39552;45.776;15.892;2022-07-11T02:51:15;6.95;;;1.77;;
53650;SDS011;39552;45.776;15.892;2022-07-11T02:53:45;2.10;;;1.50;;
53650;SDS011;39552;45.776;15.892;2022-07-11T02:56:16;5.60;;;1.60;;
53650;SDS011;39552;45.776;15.892;2022-07-11T02:58:46;4.88;;;1.88;;
53650;SDS011;39552;45.776;15.892;2022-07-11T03:01:11;4.47;;;1.50;;
53650;SDS011;39552;45.776;15.892;2022-07-11T03:03:38;6.22;;;1.67;;
53650;SDS011;39552;45.776;15.892;2022-07-11T03:06:08;6.97;;;1.58;;
53650;SDS011;39552;45.776;15.892;2022-07-11T03:08:35;2.50;;;1.13;;
53650;SDS011;39552;45.776;15.892;2022-07-11T03:16:16;5.82;;;1.50;;
53650;SDS011;39552;45.776;15.892;2022-07-11T03:18:47;7.22;;;1.52;;
53650;SDS011;39552;45.776;15.892;2022-07-11T03:21:18;2.25;;;1.55;;
53650;SDS011;39552;45.776;15.892;2022-07-11T03:23:53;1.60;;;1.30;;
53650;SDS011;39552;45.776;15.892;2022-07-11T03:26:23;4.18;;;1.30;;
53650;SDS011;39552;45.776;15.892;2022-07-11T03:28:55;5.80;;;1.50;;
53650;SDS011;39552;45.776;15.892;2022-07-11T03:31:22;7.25;;;1.65;;
53650;SDS011;39552;45.776;15.892;2022-07-11T03:33:52;5.18;;;1.17;;
53650;SDS011;39552;45.776;15.892;2022-07-11T03:36:26;7.60;;;1.67;;
53650;SDS011;39552;45.776;15.892;2022-07-11T03:38:56;6.28;;;1.40;;
53650;SDS011;39552;45.776;15.892;2022-07-11T03:41:23;4.63;;;1.40;;
53650;SDS011;39552;45.776;15.892;2022-07-11T03:44:14;9.02;;;1.45;;
53650;SDS011;39552;45.776;15.892;2022-07-11T03:46:51;6.07;;;1.30;;
53650;SDS011;39552;45.776;15.892;2022-07-11T03:49:23;8.75;;;1.83;;
53650;SDS011;39552;45.776;15.892;2022-07-11T03:51:53;2.95;;;1.30;;
53650;SDS011;39552;45.776;15.892;2022-07-11T03:54:24;10.18;;;1.58;;
53650;SDS011;39552;45.776;15.892;2022-07-11T03:56:56;4.68;;;1.50;;
53650;SDS011;39552;45.776;15.892;2022-07-11T03:59:30;1.40;;;1.05;;
53650;SDS011;39552;45.776;15.892;2022-07-11T04:02:00;3.90;;;1.30;;
53650;SDS011;39552;45.776;15.892;2022-07-11T04:04:29;5.03;;;1.58;;
53650;SDS011;39552;45.776;15.892;2022-07-11T04:07:01;4.07;;;1.50;;
53650;SDS011;39552;45.776;15.892;2022-07-11T04:09:31;5.95;;;1.27;;
53650;SDS011;39552;45.776;15.892;2022-07-11T04:12:07;9.57;;;1.60;;
53650;SDS011;39552;45.776;15.892;2022-07-11T04:14:42;3.05;;;1.20;;
53650;SDS011;39552;45.776;15.892;2022-07-11T04:17:09;4.18;;;1.55;;
53650;SDS011;39552;45.776;15.892;2022-07-11T04:19:42;4.07;;;1.65;;
53650;SDS011;39552;45.776;15.892;2022-07-11T04:22:18;4.10;;;1.40;;
53650;SDS011;39552;45.776;15.892;2022-07-11T04:24:53;2.80;;;1.10;;
53650;SDS011;39552;45.776;15.892;2022-07-11T04:27:25;4.47;;;1.60;;
53650;SDS011;39552;45.776;15.892;2022-07-11T04:30:08;6.90;;;1.40;;
53650;SDS011;39552;45.776;15.892;2022-07-11T04:32:45;3.25;;;1.42;;
53650;SDS011;39552;45.776;15.892;2022-07-11T04:35:12;1.38;;;1.27;;
53650;SDS011;39552;45.776;15.892;2022-07-11T04:37:41;7.13;;;1.83;;
53650;SDS011;39552;45.776;15.892;2022-07-11T04:40:18;7.30;;;2.03;;
53650;SDS011;39552;45.776;15.892;2022-07-11T04:42:52;5.63;;;1.88;;
53650;SDS011;39552;45.776;15.892;2022-07-11T04:45:24;5.22;;;1.52;;
53650;SDS011;39552;45.776;15.892;2022-07-11T04:47:54;3.95;;;1.20;;
53650;SDS011;39552;45.776;15.892;2022-07-11T04:50:28;6.07;;;1.58;;
53650;SDS011;39552;45.776;15.892;2022-07-11T04:53:00;2.95;;;1.70;;
53650;SDS011;39552;45.776;15.892;2022-07-11T04:55:29;2.33;;;1.10;;
53650;SDS011;39552;45.776;15.892;2022-07-11T04:58:06;1.98;;;1.38;;
53650;SDS011;39552;45.776;15.892;2022-07-11T05:00:39;4.22;;;1.60;;
53650;SDS011;39552;45.776;15.892;2022-07-11T05:03:09;3.40;;;1.33;;
53650;SDS011;39552;45.776;15.892;2022-07-11T05:05:38;7.78;;;1.50;;
53650;SDS011;39552;45.776;15.892;2022-07-11T05:08:07;2.20;;;1.33;;
53650;SDS011;39552;45.776;15.892;2022-07-11T05:10:39;8.27;;;1.30;;
53650;SDS011;39552;45.776;15.892;2022-07-11T05:13:19;1.92;;;1.17;;
53650;SDS011;39552;45.776;15.892;2022-07-11T05:15:50;1.75;;;1.38;;
53650;SDS011;39552;45.776;15.892;2022-07-11T05:18:19;5.82;;;1.50;;
53650;SDS011;39552;45.776;15.892;2022-07-11T05:20:54;3.80;;;1.35;;
53650;SDS011;39552;45.776;15.892;2022-07-11T05:23:24;5.60;;;1.40;;
53650;SDS011;39552;45.776;15.892;2022-07-11T05:26:01;2.67;;;1.50;;
53650;SDS011;39552;45.776;15.892;2022-07-11T05:28:29;2.03;;;1.40;;
53650;SDS011;39552;45.776;15.892;2022-07-11T05:31:13;1.45;;;1.17;;
53650;SDS011;39552;45.776;15.892;2022-07-11T05:34:05;2.83;;;1.20;;
53650;SDS011;39552;45.776;15.892;2022-07-11T05:39:04;3.17;;;1.13;;
53650;SDS011;39552;45.776;15.892;2022-07-11T05:41:34;4.72;;;1.40;;
53650;SDS011;39552;45.776;15.892;2022-07-11T05:44:04;3.58;;;1.25;;
53650;SDS011;39552;45.776;15.892;2022-07-11T05:46:40;3.42;;;1.30;;
53650;SDS011;39552;45.776;15.892;2022-07-11T05:49:17;3.45;;;1.20;;
53650;SDS011;39552;45.776;15.892;2022-07-11T05:51:46;3.85;;;1.48;;
53650;SDS011;39552;45.776;15.892;2022-07-11T05:54:13;1.75;;;0.98;;
53650;SDS011;39552;45.776;15.892;2022-07-11T05:56:42;0.95;;;0.90;;
53650;SDS011;39552;45.776;15.892;2022-07-11T05:59:23;3.55;;;1.30;;
53650;SDS011;39552;45.776;15.892;2022-07-11T06:08:25;8.50;;;1.52;;
53650;SDS011;39552;45.776;15.892;2022-07-11T06:10:56;1.85;;;1.00;;
53650;SDS011;39552;45.776;15.892;2022-07-11T06:13:24;2.05;;;1.13;;
53650;SDS011;39552;45.776;15.892;2022-07-11T06:19:56;3.72;;;1.48;;
53650;SDS011;39552;45.776;15.892;2022-07-11T06:23:42;4.53;;;1.30;;
53650;SDS011;39552;45.776;15.892;2022-07-11T06:29:30;2.05;;;1.20;;
53650;SDS011;39552;45.776;15.892;2022-07-11T06:39:31;1.90;;;1.48;;
53650;SDS011;39552;45.776;15.892;2022-07-11T06:42:00;1.43;;;1.30;;
53650;SDS011;39552;45.776;15.892;2022-07-11T06:44:27;2.72;;;1.35;;
53650;SDS011;39552;45.776;15.892;2022-07-11T06:46:54;9.00;;;1.40;;
53650;SDS011;39552;45.776;15.892;2022-07-11T06:49:21;4.35;;;1.42;;
53650;SDS011;39552;45.776;15.892;2022-07-11T06:51:48;5.78;;;1.25;;
53650;SDS011;39552;45.776;15.892;2022-07-11T06:54:17;3.30;;;1.10;;
53650;SDS011;39552;45.776;15.892;2022-07-11T06:56:51;1.40;;;0.98;;
53650;SDS011;39552;45.776;15.892;2022-07-11T06:59:36;2.20;;;1.05;;
53650;SDS011;39552;45.776;15.892;2022-07-11T07:04:49;2.58;;;0.95;;
53650;SDS011;39552;45.776;15.892;2022-07-11T07:07:38;1.98;;;1.00;;
53650;SDS011;39552;45.776;15.892;2022-07-11T07:10:29;1.33;;;1.00;;
53650;SDS011;39552;45.776;15.892;2022-07-11T07:13:24;2.67;;;1.20;;
53650;SDS011;39552;45.776;15.892;2022-07-11T07:15:58;2.17;;;1.00;;
53650;SDS011;39552;45.776;15.892;2022-07-11T07:18:46;1.35;;;0.82;;
53650;SDS011;39552;45.776;15.892;2022-07-11T07:21:34;2.95;;;0.93;;
53650;SDS011;39552;45.776;15.892;2022-07-11T07:24:09;1.30;;;1.00;;
53650;SDS011;39552;45.776;15.892;2022-07-11T07:26:56;2.38;;;1.10;;
53650;SDS011;39552;45.776;15.892;2022-07-11T07:29:31;1.83;;;1.20;;
53650;SDS011;39552;45.776;15.892;2022-07-11T07:32:05;2.20;;;1.10;;
53650;SDS011;39552;45.776;15.892;2022-07-11T07:34:53;2.75;;;1.05;;
53650;SDS011;39552;45.776;15.892;2022-07-11T07:37:33;1.13;;;1.00;;
53650;SDS011;39552;45.776;15.892;2022-07-11T07:40:25;2.72;;;0.93;;
53650;SDS011;39552;45.776;15.892;2022-07-11T07:43:48;1.25;;;1.00;;
53650;SDS011;39552;45.776;15.892;2022-07-11T07:46:42;1.85;;;0.90;;
53650;SDS011;39552;45.776;15.892;2022-07-11T07:49:18;2.63;;;1.20;;
53650;SDS011;39552;45.776;15.892;2022-07-11T07:51:51;1.40;;;0.85;;
53650;SDS011;39552;45.776;15.892;2022-07-11T07:54:39;3.33;;;1.02;;
53650;SDS011;39552;45.776;15.892;2022-07-11T07:57:26;3.72;;;1.00;;
53650;SDS011;39552;45.776;15.892;2022-07-11T08:15:26;2.53;;;0.98;;
53650;SDS011;39552;45.776;15.892;2022-07-11T08:18:07;2.97;;;1.10;;
53650;SDS011;39552;45.776;15.892;2022-07-11T08:20:48;2.67;;;1.35;;
53650;SDS011;39552;45.776;15.892;2022-07-11T08:23:45;1.23;;;0.90;;
53650;SDS011;39552;45.776;15.892;2022-07-11T08:26:20;1.05;;;0.70;;
53650;SDS011;39552;45.776;15.892;2022-07-11T08:29:17;2.22;;;1.30;;
53650;SDS011;39552;45.776;15.892;2022-07-11T08:32:04;1.92;;;0.80;;
53650;SDS011;39552;45.776;15.892;2022-07-11T08:34:42;2.20;;;1.02;;
53650;SDS011;39552;45.776;15.892;2022-07-11T08:37:28;1.60;;;1.08;;
53650;SDS011;39552;45.776;15.892;2022-07-11T08:42:43;2.25;;;0.70;;
53650;SDS011;39552;45.776;15.892;2022-07-11T08:45:28;2.15;;;1.02;;
53650;SDS011;39552;45.776;15.892;2022-07-11T08:48:23;3.55;;;1.05;;
53650;SDS011;39552;45.776;15.892;2022-07-11T08:51:09;3.90;;;0.93;;
53650;SDS011;39552;45.776;15.892;2022-07-11T08:53:44;3.00;;;1.00;;
53650;SDS011;39552;45.776;15.892;2022-07-11T08:56:20;3.05;;;1.00;;
53650;SDS011;39552;45.776;15.892;2022-07-11T08:59:13;1.65;;;0.55;;
53650;SDS011;39552;45.776;15.892;2022-07-11T09:01:56;5.40;;;0.95;;
53650;SDS011;39552;45.776;15.892;2022-07-11T09:04:41;2.28;;;0.80;;
53650;SDS011;39552;45.776;15.892;2022-07-11T09:07:15;7.10;;;1.05;;
53650;SDS011;39552;45.776;15.892;2022-07-11T09:10:03;1.08;;;0.90;;
53650;SDS011;39552;45.776;15.892;2022-07-11T09:13:09;2.67;;;1.00;;
53650;SDS011;39552;45.776;15.892;2022-07-11T09:16:00;2.63;;;1.00;;
53650;SDS011;39552;45.776;15.892;2022-07-11T09:18:44;1.33;;;0.90;;
53650;SDS011;39552;45.776;15.892;2022-07-11T09:24:06;1.45;;;1.00;;
53650;SDS011;39552;45.776;15.892;2022-07-11T09:26:40;1.52;;;0.90;;
53650;SDS011;39552;45.776;15.892;2022-07-11T09:29:18;0.90;;;0.80;;
53650;SDS011;39552;45.776;15.892;2022-07-11T09:32:10;1.70;;;0.95;;
53650;SDS011;39552;45.776;15.892;2022-07-11T09:35:03;3.38;;;1.30;;
53650;SDS011;39552;45.776;15.892;2022-07-11T09:40:48;2.33;;;1.33;;
53650;SDS011;39552;45.776;15.892;2022-07-11T09:43:44;2.58;;;1.08;;
53650;SDS011;39552;45.776;15.892;2022-07-11T09:46:19;4.55;;;0.98;;
53650;SDS011;39552;45.776;15.892;2022-07-11T09:49:01;5.78;;;1.30;;
53650;SDS011;39552;45.776;15.892;2022-07-11T09:52:09;2.55;;;1.10;;
53650;SDS011;39552;45.776;15.892;2022-07-11T09:55:14;2.50;;;1.00;;
53650;SDS011;39552;45.776;15.892;2022-07-11T09:58:10;3.85;;;1.23;;
53650;SDS011;39552;45.776;15.892;2022-07-11T10:01:04;1.92;;;0.98;;
53650;SDS011;39552;45.776;15.892;2022-07-11T10:03:40;4.35;;;1.35;;
53650;SDS011;39552;45.776;15.892;2022-07-11T10:06:24;1.48;;;0.90;;
53650;SDS011;39552;45.776;15.892;2022-07-11T10:12:11;2.33;;;1.25;;
53650;SDS011;39552;45.776;15.892;2022-07-11T10:20:49;3.92;;;1.30;;
53650;SDS011;39552;45.776;15.892;2022-07-11T10:23:46;6.30;;;1.23;;
53650;SDS011;39552;45.776;15.892;2022-07-11T10:26:32;1.63;;;0.88;;
53650;SDS011;39552;45.776;15.892;2022-07-11T10:29:23;5.40;;;1.08;;
53650;SDS011;39552;45.776;15.892;2022-07-11T10:32:19;2.50;;;0.82;;
53650;SDS011;39552;45.776;15.892;2022-07-11T10:35:06;1.60;;;1.00;;
53650;SDS011;39552;45.776;15.892;2022-07-11T10:38:05;1.77;;;1.00;;
53650;SDS011;39552;45.776;15.892;2022-07-11T10:40:50;1.33;;;0.80;;
53650;SDS011;39552;45.776;15.892;2022-07-11T10:43:51;3.42;;;0.90;;
53650;SDS011;39552;45.776;15.892;2022-07-11T10:46:35;1.88;;;0.95;;
53650;SDS011;39552;45.776;15.892;2022-07-11T10:49:15;3.00;;;1.10;;
53650;SDS011;39552;45.776;15.892;2022-07-11T10:52:16;1.25;;;0.90;;
53650;SDS011;39552;45.776;15.892;2022-07-11T10:55:03;2.10;;;0.98;;
53650;SDS011;39552;45.776;15.892;2022-07-11T10:57:56;3.22;;;1.00;;
53650;SDS011;39552;45.776;15.892;2022-07-11T11:00:43;2.53;;;1.20;;
53650;SDS011;39552;45.776;15.892;2022-07-11T11:03:24;1.95;;;1.05;;
53650;SDS011;39552;45.776;15.892;2022-07-11T11:06:14;1.77;;;0.98;;
53650;SDS011;39552;45.776;15.892;2022-07-11T11:08:53;1.85;;;1.00;;
53650;SDS011;39552;45.776;15.892;2022-07-11T11:11:36;1.38;;;1.02;;
53650;SDS011;39552;45.776;15.892;2022-07-11T11:14:25;1.30;;;0.88;;
53650;SDS011;39552;45.776;15.892;2022-07-11T11:20:25;2.85;;;1.00;;
53650;SDS011;39552;45.776;15.892;2022-07-11T11:23:13;2.40;;;1.15;;
53650;SDS011;39552;45.776;15.892;2022-07-11T11:25:52;2.45;;;1.00;;
53650;SDS011;39552;45.776;15.892;2022-07-11T11:28:58;4.32;;;1.10;;
53650;SDS011;39552;45.776;15.892;2022-07-11T11:31:48;6.63;;;1.02;;
53650;SDS011;39552;45.776;15.892;2022-07-11T11:34:26;4.85;;;1.13;;
53650;SDS011;39552;45.776;15.892;2022-07-11T11:37:09;5.95;;;1.38;;
53650;SDS011;39552;45.776;15.892;2022-07-11T11:40:02;2.45;;;1.23;;
53650;SDS011;39552;45.776;15.892;2022-07-11T11:42:40;3.58;;;1.08;;
53650;SDS011;39552;45.776;15.892;2022-07-11T11:45:29;3.60;;;1.30;;
53650;SDS011;39552;45.776;15.892;2022-07-11T11:51:32;2.33;;;0.90;;
53650;SDS011;39552;45.776;15.892;2022-07-11T11:54:19;1.30;;;1.15;;
53650;SDS011;39552;45.776;15.892;2022-07-11T11:59:59;2.28;;;1.00;;
53650;SDS011;39552;45.776;15.892;2022-07-11T12:02:38;1.92;;;0.98;;
53650;SDS011;39552;45.776;15.892;2022-07-11T12:05:55;1.13;;;0.88;;
53650;SDS011;39552;45.776;15.892;2022-07-11T12:08:48;5.55;;;1.48;;
53650;SDS011;39552;45.776;15.892;2022-07-11T12:11:39;1.63;;;0.90;;
53650;SDS011;39552;45.776;15.892;2022-07-11T12:14:28;2.70;;;1.00;;
53650;SDS011;39552;45.776;15.892;2022-07-11T12:17:13;1.45;;;1.00;;
53650;SDS011;39552;45.776;15.892;2022-07-11T12:19:56;3.20;;;1.02;;
53650;SDS011;39552;45.776;15.892;2022-07-11T12:25:31;2.97;;;1.00;;
53650;SDS011;39552;45.776;15.892;2022-07-11T12:31:41;1.00;;;0.90;;
53650;SDS011;39552;45.776;15.892;2022-07-11T12:37:54;3.38;;;1.10;;
53650;SDS011;39552;45.776;15.892;2022-07-11T12:40:35;1.15;;;0.90;;
53650;SDS011;39552;45.776;15.892;2022-07-11T12:43:50;2.95;;;1.10;;
53650;SDS011;39552;45.776;15.892;2022-07-11T12:46:51;1.70;;;0.90;;
53650;SDS011;39552;45.776;15.892;2022-07-11T12:49:46;4.88;;;1.20;;
53650;SDS011;39552;45.776;15.892;2022-07-11T12:52:38;4.15;;;1.00;;
53650;SDS011;39552;45.776;15.892;2022-07-11T12:55:22;0.82;;;0.82;;
53650;SDS011;39552;45.776;15.892;2022-07-11T12:58:08;1.65;;;1.02;;
53650;SDS011;39552;45.776;15.892;2022-07-11T13:01:13;2.22;;;1.05;;
53650;SDS011;39552;45.776;15.892;2022-07-11T13:03:51;2.13;;;0.90;;
53650;SDS011;39552;45.776;15.892;2022-07-11T13:06:32;3.70;;;1.00;;
53650;SDS011;39552;45.776;15.892;2022-07-11T13:09:24;2.97;;;1.00;;
53650;SDS011;39552;45.776;15.892;2022-07-11T13:12:03;1.27;;;0.80;;
53650;SDS011;39552;45.776;15.892;2022-07-11T13:14:49;1.65;;;0.95;;
53650;SDS011;39552;45.776;15.892;2022-07-11T13:20:42;3.72;;;1.20;;
53650;SDS011;39552;45.776;15.892;2022-07-11T13:23:16;4.82;;;1.00;;
53650;SDS011;39552;45.776;15.892;2022-07-11T13:26:02;0.90;;;0.73;;
53650;SDS011;39552;45.776;15.892;2022-07-11T13:28:55;1.13;;;0.90;;
53650;SDS011;39552;45.776;15.892;2022-07-11T13:34:58;2.00;;;1.10;;
53650;SDS011;39552;45.776;15.892;2022-07-11T13:38:04;2.53;;;1.00;;
53650;SDS011;39552;45.776;15.892;2022-07-11T13:41:02;1.23;;;0.95;;
53650;SDS011;39552;45.776;15.892;2022-07-11T13:47:02;1.33;;;0.98;;
53650;SDS011;39552;45.776;15.892;2022-07-11T13:49:39;5.22;;;1.10;;
53650;SDS011;39552;45.776;15.892;2022-07-11T13:55:21;2.33;;;1.10;;
53650;SDS011;39552;45.776;15.892;2022-07-11T13:58:04;1.52;;;0.88;;
53650;SDS011;39552;45.776;15.892;2022-07-11T14:00:40;1.92;;;1.25;;
53650;SDS011;39552;45.776;15.892;2022-07-11T14:03:10;1.38;;;0.80;;
53650;SDS011;39552;45.776;15.892;2022-07-11T14:06:08;3.47;;;0.93;;
53650;SDS011;39552;45.776;15.892;2022-07-11T14:08:55;3.65;;;1.08;;
53650;SDS011;39552;45.776;15.892;2022-07-11T14:11:28;3.90;;;0.82;;
53650;SDS011;39552;45.776;15.892;2022-07-11T14:14:16;2.65;;;1.10;;
53650;SDS011;39552;45.776;15.892;2022-07-11T14:19:44;0.90;;;0.90;;
53650;SDS011;39552;45.776;15.892;2022-07-11T14:22:30;1.48;;;0.95;;
53650;SDS011;39552;45.776;15.892;2022-07-11T14:25:27;1.63;;;1.13;;
53650;SDS011;39552;45.776;15.892;2022-07-11T14:28:02;4.78;;;0.93;;
53650;SDS011;39552;45.776;15.892;2022-07-11T14:31:02;3.50;;;1.15;;
53650;SDS011;39552;45.776;15.892;2022-07-11T14:33:48;1.15;;;0.90;;
53650;SDS011;39552;45.776;15.892;2022-07-11T14:36:31;2.25;;;0.98;;
53650;SDS011;39552;45.776;15.892;2022-07-11T14:39:11;1.92;;;0.80;;
53650;SDS011;39552;45.776;15.892;2022-07-11T14:45:13;2.40;;;1.02;;
53650;SDS011;39552;45.776;15.892;2022-07-11T14:47:54;3.55;;;1.10;;
53650;SDS011;39552;45.776;15.892;2022-07-11T14:50:34;8.60;;;1.20;;
53650;SDS011;39552;45.776;15.892;2022-07-11T14:53:24;5.55;;;1.15;;
53650;SDS011;39552;45.776;15.892;2022-07-11T14:56:08;2.10;;;1.00;;
53650;SDS011;39552;45.776;15.892;2022-07-11T15:01:54;1.33;;;1.00;;
53650;SDS011;39552;45.776;15.892;2022-07-11T15:05:07;4.25;;;0.98;;
53650;SDS011;39552;45.776;15.892;2022-07-11T15:07:51;2.60;;;0.75;;
53650;SDS011;39552;45.776;15.892;2022-07-11T15:10:26;2.92;;;1.10;;
53650;SDS011;39552;45.776;15.892;2022-07-11T15:13:09;2.45;;;0.93;;
53650;SDS011;39552;45.776;15.892;2022-07-11T15:16:06;2.72;;;1.10;;
53650;SDS011;39552;45.776;15.892;2022-07-11T15:18:40;3.22;;;1.02;;
53650;SDS011;39552;45.776;15.892;2022-07-11T15:21:29;1.38;;;0.88;;
53650;SDS011;39552;45.776;15.892;2022-07-11T15:24:34;4.78;;;1.00;;
53650;SDS011;39552;45.776;15.892;2022-07-11T15:27:25;1.95;;;0.88;;
53650;SDS011;39552;45.776;15.892;2022-07-11T15:30:18;2.28;;;0.98;;
53650;SDS011;39552;45.776;15.892;2022-07-11T15:32:58;2.00;;;0.95;;
53650;SDS011;39552;45.776;15.892;2022-07-11T15:35:48;0.85;;;0.85;;
53650;SDS011;39552;45.776;15.892;2022-07-11T15:38:29;8.73;;;1.20;;
53650;SDS011;39552;45.776;15.892;2022-07-11T15:41:18;1.63;;;1.05;;
53650;SDS011;39552;45.776;15.892;2022-07-11T15:43:58;1.42;;;1.20;;
53650;SDS011;39552;45.776;15.892;2022-07-11T15:46:34;2.15;;;0.95;;
53650;SDS011;39552;45.776;15.892;2022-07-11T15:49:27;2.03;;;1.10;;
53650;SDS011;39552;45.776;15.892;2022-07-11T15:52:14;1.77;;;1.02;;
53650;SDS011;39552;45.776;15.892;2022-07-11T15:54:58;1.75;;;1.05;;
53650;SDS011;39552;45.776;15.892;2022-07-11T15:57:46;2.00;;;1.08;;
53650;SDS011;39552;45.776;15.892;2022-07-11T16:00:25;6.55;;;1.23;;
53650;SDS011;39552;45.776;15.892;2022-07-11T16:03:14;1.67;;;0.90;;
53650;SDS011;39552;45.776;15.892;2022-07-11T16:06:04;7.43;;;1.08;;
53650;SDS011;39552;45.776;15.892;2022-07-11T16:08:46;1.15;;;0.88;;
53650;SDS011;39552;45.776;15.892;2022-07-11T16:14:22;1.85;;;0.90;;
53650;SDS011;39552;45.776;15.892;2022-07-11T16:17:05;4.38;;;1.13;;
53650;SDS011;39552;45.776;15.892;2022-07-11T16:22:50;1.15;;;0.80;;
53650;SDS011;39552;45.776;15.892;2022-07-11T16:25:27;1.48;;;0.90;;
53650;SDS011;39552;45.776;15.892;2022-07-11T16:28:37;4.05;;;1.33;;
53650;SDS011;39552;45.776;15.892;2022-07-11T16:31:27;1.60;;;0.98;;
53650;SDS011;39552;45.776;15.892;2022-07-11T16:34:05;0.85;;;0.77;;
53650;SDS011;39552;45.776;15.892;2022-07-11T16:37:15;0.73;;;0.73;;
53650;SDS011;39552;45.776;15.892;2022-07-11T16:40:09;1.63;;;1.07;;
53650;SDS011;39552;45.776;15.892;2022-07-11T16:42:50;0.93;;;0.80;;
53650;SDS011;39552;45.776;15.892;2022-07-11T16:45:55;2.47;;;1.00;;
53650;SDS011;39552;45.776;15.892;2022-07-11T16:49:09;3.28;;;1.10;;
53650;SDS011;39552;45.776;15.892;2022-07-11T16:51:58;1.83;;;1.10;;
53650;SDS011;39552;45.776;15.892;2022-07-11T16:55:03;2.97;;;1.30;;
53650;SDS011;39552;45.776;15.892;2022-07-11T16:57:56;2.13;;;1.10;;
53650;SDS011;39552;45.776;15.892;2022-07-11T17:00:31;2.22;;;1.00;;
53650;SDS011;39552;45.776;15.892;2022-07-11T17:03:02;2.97;;;1.02;;
53650;SDS011;39552;45.776;15.892;2022-07-11T17:05:33;5.82;;;1.38;;
53650;SDS011;39552;45.776;15.892;2022-07-11T17:08:17;3.40;;;1.20;;
53650;SDS011;39552;45.776;15.892;2022-07-11T17:14:01;3.25;;;1.00;;
53650;SDS011;39552;45.776;15.892;2022-07-11T17:16:48;1.67;;;1.00;;
53650;SDS011;39552;45.776;15.892;2022-07-11T17:19:47;1.95;;;1.00;;
53650;SDS011;39552;45.776;15.892;2022-07-11T17:22:33;3.50;;;1.20;;
53650;SDS011;39552;45.776;15.892;2022-07-11T17:25:33;2.10;;;1.10;;
53650;SDS011;39552;45.776;15.892;2022-07-11T17:32:34;2.60;;;1.40;;
53650;SDS011;39552;45.776;15.892;2022-07-11T17:34:22;2.00;;;1.20;;
53650;SDS011;39552;45.776;15.892;2022-07-11T17:42:28;3.83;;;1.15;;
53650;SDS011;39552;45.776;15.892;2022-07-11T17:45:27;2.05;;;1.30;;
53650;SDS011;39552;45.776;15.892;2022-07-11T17:48:01;3.38;;;1.30;;
53650;SDS011;39552;45.776;15.892;2022-07-11T17:51:11;2.17;;;1.30;;
53650;SDS011;39552;45.776;15.892;2022-07-11T17:53:56;2.53;;;1.08;;
53650;SDS011;39552;45.776;15.892;2022-07-11T17:57:04;2.50;;;1.17;;